createdAt,value
2023-02-22T00:00:15.090Z,7.88
2023-02-22T00:01:15.401Z,7.88
2023-02-22T00:02:15.088Z,7.91
2023-02-22T00:03:15.131Z,7.88
2023-02-22T00:04:15.044Z,7.86
2023-02-22T00:05:15.044Z,7.86
2023-02-22T00:06:15.025Z,7.86
2023-02-22T00:07:15.002Z,7.86
2023-02-22T00:08:14.998Z,7.86
2023-02-22T00:09:14.984Z,7.89
2023-02-22T00:10:14.981Z,7.86
2023-02-22T00:11:15.399Z,7.85
2023-02-22T00:12:14.945Z,7.88
2023-02-22T00:13:14.958Z,7.86
2023-02-22T00:14:14.943Z,7.84
2023-02-22T00:15:14.923Z,7.81
2023-02-22T00:16:14.944Z,7.79
2023-02-22T00:17:14.924Z,7.79
2023-02-22T00:18:14.894Z,7.74
2023-02-22T00:19:14.923Z,7.73
2023-02-22T00:20:15.258Z,7.70
2023-02-22T00:21:15.180Z,7.71
2023-02-22T00:22:14.848Z,7.70
2023-02-22T00:23:14.851Z,7.70
2023-02-22T00:24:14.836Z,7.71
2023-02-22T00:25:14.863Z,7.69
2023-02-22T00:26:14.809Z,7.69
2023-02-22T00:27:14.808Z,7.69
2023-02-22T00:28:14.783Z,7.66
2023-02-22T00:29:14.770Z,7.66
2023-02-22T00:30:14.873Z,7.66
2023-02-22T00:31:15.342Z,7.66
2023-02-22T00:32:14.869Z,7.67
2023-02-22T00:33:14.729Z,7.67
2023-02-22T00:34:14.712Z,7.63
2023-02-22T00:35:14.719Z,7.66
2023-02-22T00:36:14.719Z,7.66
2023-02-22T00:37:14.687Z,7.63
2023-02-22T00:38:14.671Z,7.66
2023-02-22T00:39:14.692Z,7.63
2023-02-22T00:40:14.648Z,7.60
2023-02-22T00:41:15.160Z,7.60
2023-02-22T00:42:14.628Z,7.63
2023-02-22T00:43:14.645Z,7.67
2023-02-22T00:44:14.655Z,7.69
2023-02-22T00:45:14.625Z,7.70
2023-02-22T00:46:14.923Z,7.67
2023-02-22T00:47:14.773Z,7.66
2023-02-22T00:48:14.589Z,7.66
2023-02-22T00:49:14.570Z,7.62
2023-02-22T00:50:14.560Z,7.62
2023-02-22T00:51:14.961Z,7.66
2023-02-22T00:52:14.740Z,7.63
2023-02-22T00:53:14.538Z,7.58
2023-02-22T00:54:14.518Z,7.57
2023-02-22T00:55:14.511Z,7.52
2023-02-22T00:56:14.485Z,7.52
2023-02-22T00:57:14.490Z,7.51
2023-02-22T00:58:14.479Z,7.47
2023-02-22T00:59:14.469Z,7.48
2023-02-22T01:00:14.451Z,7.45
2023-02-22T01:01:14.935Z,7.41
2023-02-22T01:02:14.433Z,7.37
2023-02-22T01:03:14.422Z,7.36
2023-02-22T01:04:14.422Z,7.33
2023-02-22T01:05:14.391Z,7.33
2023-02-22T01:06:14.392Z,7.33
2023-02-22T01:07:14.383Z,7.34
2023-02-22T01:08:14.381Z,7.34
2023-02-22T01:09:14.352Z,7.34
2023-02-22T01:10:14.341Z,7.36
2023-02-22T01:11:14.536Z,7.34
2023-02-22T01:12:14.323Z,7.33
2023-02-22T01:13:14.319Z,7.33
2023-02-22T01:14:14.293Z,7.33
2023-02-22T01:15:14.283Z,7.33
2023-02-22T01:16:14.299Z,7.34
2023-02-22T01:17:14.273Z,7.34
2023-02-22T01:18:14.272Z,7.36
2023-02-22T01:19:14.252Z,7.34
2023-02-22T01:20:14.229Z,7.33
2023-02-22T01:21:14.492Z,7.36
2023-02-22T01:22:14.367Z,7.34
2023-02-22T01:23:14.309Z,7.34
2023-02-22T01:24:14.290Z,7.33
2023-02-22T01:25:14.190Z,7.30
2023-02-22T01:26:14.173Z,7.29
2023-02-22T01:27:14.195Z,7.32
2023-02-22T01:28:14.160Z,7.29
2023-02-22T01:29:14.158Z,7.29
2023-02-22T01:30:14.204Z,7.29
2023-02-22T01:31:14.184Z,7.27
2023-02-22T01:32:14.127Z,7.27
2023-02-22T01:33:14.103Z,7.27
2023-02-22T01:34:14.073Z,7.27
2023-02-22T01:35:14.090Z,7.29
2023-02-22T01:36:14.214Z,7.30
2023-02-22T01:37:14.143Z,7.26
2023-02-22T01:38:14.052Z,7.26
2023-02-22T01:39:14.037Z,7.23
2023-02-22T01:40:14.011Z,7.23
2023-02-22T01:41:14.090Z,7.24
2023-02-22T01:42:13.992Z,7.24
2023-02-22T01:43:14.003Z,7.26
2023-02-22T01:44:13.999Z,7.24
2023-02-22T01:45:13.963Z,7.23
2023-02-22T01:46:14.012Z,7.18
2023-02-22T01:47:13.951Z,7.15
2023-02-22T01:48:13.943Z,7.18
2023-02-22T01:49:13.921Z,7.18
2023-02-22T01:50:13.921Z,7.16
2023-02-22T01:51:13.974Z,7.18
2023-02-22T01:52:13.881Z,7.15
2023-02-22T01:53:13.916Z,7.14
2023-02-22T01:54:13.888Z,7.15
2023-02-22T01:55:13.858Z,7.11
2023-02-22T01:56:13.847Z,7.11
2023-02-22T01:57:13.849Z,7.09
2023-02-22T01:58:13.811Z,7.11
2023-02-22T01:59:13.821Z,7.08
2023-02-22T02:00:13.820Z,7.08
2023-02-22T02:01:13.800Z,7.09
2023-02-22T02:02:13.782Z,7.09
2023-02-22T02:03:13.784Z,7.08
2023-02-22T02:04:13.799Z,7.09
2023-02-22T02:05:13.816Z,7.07
2023-02-22T02:06:13.745Z,7.09
2023-02-22T02:07:13.721Z,7.07
2023-02-22T02:08:13.730Z,7.05
2023-02-22T02:09:13.711Z,7.01
2023-02-22T02:10:13.721Z,7.01
2023-02-22T02:11:13.699Z,6.99
2023-02-22T02:12:13.694Z,6.99
2023-02-22T02:13:13.659Z,6.96
2023-02-22T02:14:13.652Z,6.93
2023-02-22T02:15:13.641Z,6.91
2023-02-22T02:16:13.632Z,6.91
2023-02-22T02:17:13.636Z,6.90
2023-02-22T02:18:13.617Z,6.89
2023-02-22T02:19:13.594Z,6.91
2023-02-22T02:20:13.594Z,6.91
2023-02-22T02:21:13.667Z,6.90
2023-02-22T02:22:13.575Z,6.89
2023-02-22T02:23:13.553Z,6.89
2023-02-22T02:24:13.565Z,6.89
2023-02-22T02:25:13.524Z,6.89
2023-02-22T02:26:13.525Z,6.90
2023-02-22T02:27:13.516Z,6.91
2023-02-22T02:28:13.509Z,6.91
2023-02-22T02:29:13.496Z,6.96
2023-02-22T02:30:13.546Z,6.96
2023-02-22T02:31:13.476Z,6.97
2023-02-22T02:32:13.611Z,6.97
2023-02-22T02:33:13.447Z,6.97
2023-02-22T02:34:13.468Z,6.96
2023-02-22T02:35:13.437Z,6.97
2023-02-22T02:36:13.426Z,6.96
2023-02-22T02:37:13.411Z,6.96
2023-02-22T02:38:13.409Z,6.97
2023-02-22T02:39:13.391Z,6.97
2023-02-22T02:40:13.401Z,6.97
2023-02-22T02:41:13.371Z,6.99
2023-02-22T02:42:13.376Z,6.97
2023-02-22T02:43:13.357Z,6.97
2023-02-22T02:44:13.338Z,6.97
2023-02-22T02:45:13.335Z,6.99
2023-02-22T02:46:13.321Z,6.96
2023-02-22T02:47:13.297Z,6.91
2023-02-22T02:48:13.310Z,6.89
2023-02-22T02:49:13.279Z,6.82
2023-02-22T02:50:13.272Z,6.82
2023-02-22T02:51:13.277Z,6.79
2023-02-22T02:52:13.250Z,6.78
2023-02-22T02:53:13.240Z,6.76
2023-02-22T02:54:13.249Z,6.73
2023-02-22T02:55:13.230Z,6.72
2023-02-22T02:56:13.237Z,6.75
2023-02-22T02:57:13.189Z,6.78
2023-02-22T02:58:13.281Z,6.78
2023-02-22T02:59:13.201Z,6.78
2023-02-22T03:00:13.173Z,6.78
2023-02-22T03:01:13.228Z,6.81
2023-02-22T03:02:13.187Z,6.78
2023-02-22T03:03:13.142Z,6.79
2023-02-22T03:04:13.125Z,6.79
2023-02-22T03:05:13.136Z,6.79
2023-02-22T03:06:13.101Z,6.79
2023-02-22T03:07:13.123Z,6.79
2023-02-22T03:08:13.081Z,6.78
2023-02-22T03:09:13.078Z,6.75
2023-02-22T03:10:13.101Z,6.75
2023-02-22T03:11:13.042Z,6.75
2023-02-22T03:12:13.044Z,6.78
2023-02-22T03:13:13.022Z,6.78
2023-02-22T03:14:13.038Z,6.76
2023-02-22T03:15:13.006Z,6.75
2023-02-22T03:16:13.019Z,6.79
2023-02-22T03:17:12.984Z,6.78
2023-02-22T03:18:12.976Z,6.78
2023-02-22T03:19:13.008Z,6.76
2023-02-22T03:20:12.954Z,6.75
2023-02-22T03:21:12.934Z,6.75
2023-02-22T03:22:12.935Z,6.72
2023-02-22T03:23:12.914Z,6.72
2023-02-22T03:24:12.917Z,6.72
2023-02-22T03:25:12.926Z,6.73
2023-02-22T03:26:12.905Z,6.73
2023-02-22T03:27:12.905Z,6.72
2023-02-22T03:28:12.876Z,6.72
2023-02-22T03:29:12.863Z,6.72
2023-02-22T03:30:12.878Z,6.71
2023-02-22T03:31:12.893Z,6.71
2023-02-22T03:32:12.847Z,6.71
2023-02-22T03:33:12.817Z,6.72
2023-02-22T03:34:12.815Z,6.71
2023-02-22T03:35:12.810Z,6.68
2023-02-22T03:36:12.808Z,6.68
2023-02-22T03:37:12.787Z,6.69
2023-02-22T03:38:12.767Z,6.68
2023-02-22T03:39:12.768Z,6.68
2023-02-22T03:40:12.749Z,6.68
2023-02-22T03:41:12.738Z,6.68
2023-02-22T03:42:12.721Z,6.64
2023-02-22T03:43:12.721Z,6.65
2023-02-22T03:44:12.730Z,6.64
2023-02-22T03:45:12.699Z,6.64
2023-02-22T03:46:12.728Z,6.65
2023-02-22T03:47:12.674Z,6.65
2023-02-22T03:48:12.676Z,6.65
2023-02-22T03:49:12.649Z,6.65
2023-02-22T03:50:12.672Z,6.65
2023-02-22T03:51:13.331Z,6.65
2023-02-22T03:52:12.630Z,6.65
2023-02-22T03:53:12.610Z,6.64
2023-02-22T03:54:12.601Z,6.63
2023-02-22T03:55:12.618Z,6.61
2023-02-22T03:56:12.586Z,6.60
2023-02-22T03:57:12.585Z,6.60
2023-02-22T03:58:12.561Z,6.60
2023-02-22T03:59:12.542Z,6.57
2023-02-22T04:00:12.549Z,6.58
2023-02-22T04:01:12.522Z,6.54
2023-02-22T04:02:12.529Z,6.54
2023-02-22T04:03:12.580Z,6.53
2023-02-22T04:04:12.491Z,6.51
2023-02-22T04:05:12.479Z,6.51
2023-02-22T04:06:12.475Z,6.48
2023-02-22T04:07:12.464Z,6.46
2023-02-22T04:08:12.467Z,6.46
2023-02-22T04:09:12.430Z,6.46
2023-02-22T04:10:12.430Z,6.46
2023-02-22T04:11:12.411Z,6.48
2023-02-22T04:12:13.349Z,6.45
2023-02-22T04:13:12.410Z,6.46
2023-02-22T04:14:12.381Z,6.46
2023-02-22T04:15:12.377Z,6.48
2023-02-22T04:16:12.398Z,6.50
2023-02-22T04:17:12.363Z,6.51
2023-02-22T04:18:12.344Z,6.50
2023-02-22T04:19:12.451Z,6.50
2023-02-22T04:20:12.331Z,6.48
2023-02-22T04:21:12.301Z,6.48
2023-02-22T04:22:12.309Z,6.50
2023-02-22T04:23:12.288Z,6.46
2023-02-22T04:24:12.294Z,6.45
2023-02-22T04:25:12.262Z,6.45
2023-02-22T04:26:12.253Z,6.43
2023-02-22T04:27:12.263Z,6.43
2023-02-22T04:28:12.241Z,6.45
2023-02-22T04:29:12.248Z,6.46
2023-02-22T04:30:12.249Z,6.43
2023-02-22T04:31:12.239Z,6.43
2023-02-22T04:32:12.287Z,6.42
2023-02-22T04:33:12.180Z,6.42
2023-02-22T04:34:12.172Z,6.40
2023-02-22T04:35:12.160Z,6.39
2023-02-22T04:36:12.153Z,6.38
2023-02-22T04:37:12.133Z,6.36
2023-02-22T04:38:12.136Z,6.38
2023-02-22T04:39:12.150Z,6.38
2023-02-22T04:40:12.115Z,6.38
2023-02-22T04:41:12.096Z,6.36
2023-02-22T04:42:12.084Z,6.36
2023-02-22T04:43:12.082Z,6.36
2023-02-22T04:44:12.102Z,6.38
2023-02-22T04:45:12.053Z,6.35
2023-02-22T04:46:12.063Z,6.36
2023-02-22T04:47:12.042Z,6.36
2023-02-22T04:48:12.026Z,6.33
2023-02-22T04:49:12.016Z,6.36
2023-02-22T04:50:12.057Z,6.35
2023-02-22T04:51:11.994Z,6.33
2023-02-22T04:52:11.984Z,6.32
2023-02-22T04:53:11.975Z,6.32
2023-02-22T04:54:11.969Z,6.32
2023-02-22T04:55:11.959Z,6.27
2023-02-22T04:56:11.959Z,6.28
2023-02-22T04:57:11.938Z,6.30
2023-02-22T04:58:11.925Z,6.30
2023-02-22T04:59:11.895Z,6.27
2023-02-22T05:00:11.897Z,6.25
2023-02-22T05:01:11.912Z,6.27
2023-02-22T05:02:11.874Z,6.27
2023-02-22T05:03:11.875Z,6.28
2023-02-22T05:04:11.868Z,6.27
2023-02-22T05:05:11.845Z,6.27
2023-02-22T05:06:11.834Z,6.25
2023-02-22T05:07:11.834Z,6.25
2023-02-22T05:08:11.815Z,6.25
2023-02-22T05:09:11.798Z,6.25
2023-02-22T05:10:11.800Z,6.24
2023-02-22T05:11:11.777Z,6.24
2023-02-22T05:12:11.788Z,6.24
2023-02-22T05:13:12.012Z,6.20
2023-02-22T05:14:11.747Z,6.19
2023-02-22T05:15:11.737Z,6.17
2023-02-22T05:16:11.774Z,6.19
2023-02-22T05:17:11.717Z,6.19
2023-02-22T05:18:11.708Z,6.19
2023-02-22T05:19:11.700Z,6.19
2023-02-22T05:20:11.689Z,6.19
2023-02-22T05:21:11.670Z,6.19
2023-02-22T05:22:11.671Z,6.20
2023-02-22T05:23:11.667Z,6.20
2023-02-22T05:24:11.647Z,6.17
2023-02-22T05:25:11.627Z,6.19
2023-02-22T05:26:11.849Z,6.16
2023-02-22T05:27:11.621Z,6.16
2023-02-22T05:28:11.602Z,6.14
2023-02-22T05:29:11.586Z,6.13
2023-02-22T05:30:11.614Z,6.11
2023-02-22T05:31:11.590Z,6.11
2023-02-22T05:32:11.592Z,6.13
2023-02-22T05:33:11.546Z,6.11
2023-02-22T05:34:11.540Z,6.11
2023-02-22T05:35:11.525Z,6.10
2023-02-22T05:36:11.528Z,6.11
2023-02-22T05:37:11.508Z,6.11
2023-02-22T05:38:11.498Z,6.13
2023-02-22T05:39:11.501Z,6.13
2023-02-22T05:40:11.470Z,6.13
2023-02-22T05:41:11.462Z,6.13
2023-02-22T05:42:11.457Z,6.13
2023-02-22T05:43:11.442Z,6.16
2023-02-22T05:44:11.462Z,6.17
2023-02-22T05:45:11.422Z,6.17
2023-02-22T05:46:11.461Z,6.16
2023-02-22T05:47:11.401Z,6.17
2023-02-22T05:48:11.409Z,6.16
2023-02-22T05:49:11.403Z,6.14
2023-02-22T05:50:11.382Z,6.13
2023-02-22T05:51:11.366Z,6.13
2023-02-22T05:52:11.349Z,6.10
2023-02-22T05:53:11.333Z,6.10
2023-02-22T05:54:11.346Z,6.10
2023-02-22T05:55:11.312Z,6.08
2023-02-22T05:56:11.321Z,6.10
2023-02-22T05:57:11.293Z,6.06
2023-02-22T05:58:12.234Z,6.08
2023-02-22T05:59:11.291Z,6.06
2023-02-22T06:00:11.274Z,6.05
2023-02-22T06:01:11.251Z,6.08
2023-02-22T06:02:11.296Z,6.06
2023-02-22T06:03:11.250Z,6.08
2023-02-22T06:04:11.239Z,6.10
2023-02-22T06:05:11.435Z,6.08
2023-02-22T06:06:11.206Z,6.10
2023-02-22T06:07:11.353Z,6.11
2023-02-22T06:08:11.179Z,6.11
2023-02-22T06:09:11.161Z,6.13
2023-02-22T06:10:11.163Z,6.13
2023-02-22T06:11:11.142Z,6.16
2023-02-22T06:12:11.129Z,6.16
2023-02-22T06:13:11.148Z,6.16
2023-02-22T06:14:11.121Z,6.16
2023-02-22T06:15:11.126Z,6.17
2023-02-22T06:16:11.179Z,6.16
2023-02-22T06:17:11.220Z,6.19
2023-02-22T06:18:11.110Z,6.17
2023-02-22T06:19:11.064Z,6.19
2023-02-22T06:20:11.054Z,6.17
2023-02-22T06:21:11.052Z,6.16
2023-02-22T06:22:11.023Z,6.17
2023-02-22T06:23:11.040Z,6.17
2023-02-22T06:24:11.002Z,6.19
2023-02-22T06:25:10.990Z,6.17
2023-02-22T06:26:11.016Z,6.17
2023-02-22T06:27:10.970Z,6.19
2023-02-22T06:28:11.155Z,6.17
2023-02-22T06:29:11.091Z,6.20
2023-02-22T06:30:13.185Z,6.21
2023-02-22T06:31:10.966Z,6.20
2023-02-22T06:32:10.949Z,6.21
2023-02-22T06:33:10.910Z,6.21
2023-02-22T06:34:10.892Z,6.21
2023-02-22T06:35:10.907Z,6.21
2023-02-22T06:36:10.890Z,6.24
2023-02-22T06:37:10.885Z,6.21
2023-02-22T06:38:10.850Z,6.20
2023-02-22T06:39:10.854Z,6.24
2023-02-22T06:40:10.855Z,6.24
2023-02-22T06:41:10.823Z,6.25
2023-02-22T06:42:10.828Z,6.27
2023-02-22T06:43:10.809Z,6.25
2023-02-22T06:44:10.791Z,6.28
2023-02-22T06:45:10.831Z,6.28
2023-02-22T06:46:10.769Z,6.32
2023-02-22T06:47:10.771Z,6.33
2023-02-22T06:48:10.751Z,6.32
2023-02-22T06:49:10.752Z,6.35
2023-02-22T06:50:10.731Z,6.35
2023-02-22T06:51:10.716Z,6.35
2023-02-22T06:52:10.718Z,6.35
2023-02-22T06:53:10.691Z,6.35
2023-02-22T06:54:10.695Z,6.35
2023-02-22T06:55:10.691Z,6.33
2023-02-22T06:56:10.665Z,6.33
2023-02-22T06:57:10.661Z,6.33
2023-02-22T06:58:10.638Z,6.35
2023-02-22T06:59:10.664Z,6.38
2023-02-22T07:00:10.621Z,6.39
2023-02-22T07:01:10.633Z,6.40
2023-02-22T07:02:10.609Z,6.39
2023-02-22T07:03:10.625Z,6.40
2023-02-22T07:04:10.584Z,6.42
2023-02-22T07:05:10.578Z,6.43
2023-02-22T07:06:10.576Z,6.43
2023-02-22T07:07:10.577Z,6.46
2023-02-22T07:08:10.555Z,6.46
2023-02-22T07:09:10.540Z,6.46
2023-02-22T07:10:10.516Z,6.48
2023-02-22T07:11:10.536Z,6.50
2023-02-22T07:12:10.517Z,6.51
2023-02-22T07:13:10.487Z,6.54
2023-02-22T07:14:10.468Z,6.57
2023-02-22T07:15:10.475Z,6.55
2023-02-22T07:16:10.484Z,6.58
2023-02-22T07:17:10.447Z,6.58
2023-02-22T07:18:10.432Z,6.61
2023-02-22T07:19:11.160Z,6.64
2023-02-22T07:20:10.419Z,6.65
2023-02-22T07:21:11.977Z,6.69
2023-02-22T07:22:10.422Z,6.71
2023-02-22T07:23:10.385Z,6.72
2023-02-22T07:24:10.380Z,6.75
2023-02-22T07:25:10.378Z,6.75
2023-02-22T07:26:10.357Z,6.78
2023-02-22T07:27:10.339Z,6.78
2023-02-22T07:28:10.340Z,6.79
2023-02-22T07:29:10.324Z,6.81
2023-02-22T07:30:10.335Z,6.82
2023-02-22T07:31:10.309Z,6.82
2023-02-22T07:32:10.361Z,6.83
2023-02-22T07:33:10.331Z,6.86
2023-02-22T07:34:10.269Z,6.90
2023-02-22T07:35:10.269Z,6.91
2023-02-22T07:36:10.276Z,6.94
2023-02-22T07:37:10.232Z,6.96
2023-02-22T07:38:10.223Z,6.97
2023-02-22T07:39:10.222Z,7.01
2023-02-22T07:40:10.200Z,7.00
2023-02-22T07:41:10.210Z,7.04
2023-02-22T07:42:10.174Z,7.05
2023-02-22T07:43:10.181Z,7.08
2023-02-22T07:44:10.152Z,7.12
2023-02-22T07:45:10.163Z,7.14
2023-02-22T07:46:10.134Z,7.15
2023-02-22T07:47:10.133Z,7.19
2023-02-22T07:48:10.124Z,7.18
2023-02-22T07:49:10.104Z,7.21
2023-02-22T07:50:10.115Z,7.24
2023-02-22T07:51:10.195Z,7.29
2023-02-22T07:52:10.074Z,7.30
2023-02-22T07:53:10.064Z,7.33
2023-02-22T07:54:10.066Z,7.34
2023-02-22T07:55:10.095Z,7.36
2023-02-22T07:56:10.024Z,7.37
2023-02-22T07:57:10.031Z,7.41
2023-02-22T07:58:10.020Z,7.41
2023-02-22T07:59:10.034Z,7.42
2023-02-22T08:00:09.992Z,7.44
2023-02-22T08:01:09.985Z,7.47
2023-02-22T08:02:10.010Z,7.48
2023-02-22T08:03:09.966Z,7.50
2023-02-22T08:04:09.945Z,7.50
2023-02-22T08:05:09.956Z,7.51
2023-02-22T08:06:11.520Z,7.52
2023-02-22T08:07:09.958Z,7.54
2023-02-22T08:08:10.006Z,7.54
2023-02-22T08:09:09.927Z,7.58
2023-02-22T08:10:09.966Z,7.60
2023-02-22T08:11:09.889Z,7.62
2023-02-22T08:12:10.877Z,7.66
2023-02-22T08:13:09.865Z,7.70
2023-02-22T08:14:09.991Z,7.70
2023-02-22T08:15:09.853Z,7.71
2023-02-22T08:16:10.901Z,7.74
2023-02-22T08:17:09.868Z,7.76
2023-02-22T08:18:10.528Z,7.79
2023-02-22T08:19:09.829Z,7.82
2023-02-22T08:20:10.488Z,7.85
2023-02-22T08:21:09.828Z,7.86
2023-02-22T08:22:09.789Z,7.88
2023-02-22T08:23:09.765Z,7.89
2023-02-22T08:24:09.744Z,7.89
2023-02-22T08:25:09.737Z,7.89
2023-02-22T08:26:09.746Z,7.91
2023-02-22T08:27:09.710Z,7.92
2023-02-22T08:28:09.712Z,7.95
2023-02-22T08:29:09.689Z,7.99
2023-02-22T08:30:09.740Z,8.03
2023-02-22T08:31:09.668Z,8.04
2023-02-22T08:32:09.823Z,8.07
2023-02-22T08:33:09.706Z,8.10
2023-02-22T08:34:09.629Z,8.12
2023-02-22T08:35:09.636Z,8.13
2023-02-22T08:36:09.619Z,8.17
2023-02-22T08:37:09.603Z,8.21
2023-02-22T08:38:09.587Z,8.24
2023-02-22T08:39:09.580Z,8.27
2023-02-22T08:40:09.590Z,8.31
2023-02-22T08:41:09.559Z,8.34
2023-02-22T08:42:09.550Z,8.39
2023-02-22T08:43:09.552Z,8.40
2023-02-22T08:44:09.521Z,8.43
2023-02-22T08:45:09.519Z,8.47
2023-02-22T08:46:09.552Z,8.50
2023-02-22T08:47:09.488Z,8.50
2023-02-22T08:48:09.479Z,8.50
2023-02-22T08:49:09.487Z,8.49
2023-02-22T08:50:09.487Z,8.50
2023-02-22T08:51:09.479Z,8.54
2023-02-22T08:52:09.451Z,8.55
2023-02-22T08:53:09.452Z,8.57
2023-02-22T08:54:09.436Z,8.60
2023-02-22T08:55:09.411Z,8.64
2023-02-22T08:56:09.396Z,8.67
2023-02-22T08:57:09.393Z,8.71
2023-02-22T08:58:09.592Z,8.76
2023-02-22T08:59:09.367Z,8.80
2023-02-22T09:00:09.360Z,8.83
2023-02-22T09:01:09.386Z,8.89
2023-02-22T09:02:09.347Z,8.91
2023-02-22T09:03:09.340Z,8.97
2023-02-22T09:04:09.311Z,8.98
2023-02-22T09:05:09.319Z,9.03
2023-02-22T09:06:09.329Z,9.08
2023-02-22T09:07:09.285Z,9.12
2023-02-22T09:08:09.319Z,9.15
2023-02-22T09:09:09.258Z,9.16
2023-02-22T09:10:09.246Z,9.20
2023-02-22T09:11:09.227Z,9.22
2023-02-22T09:12:09.226Z,9.26
2023-02-22T09:13:09.229Z,9.30
2023-02-22T09:14:09.207Z,9.31
2023-02-22T09:15:09.210Z,9.34
2023-02-22T09:16:09.244Z,9.35
2023-02-22T09:17:09.168Z,9.41
2023-02-22T09:18:09.169Z,9.45
2023-02-22T09:19:09.166Z,9.48
2023-02-22T09:20:09.159Z,9.50
2023-02-22T09:21:09.208Z,9.56
2023-02-22T09:22:09.110Z,9.59
2023-02-22T09:23:10.158Z,9.67
2023-02-22T09:24:09.098Z,9.71
2023-02-22T09:25:16.748Z,9.75
2023-02-22T09:26:10.069Z,9.81
2023-02-22T09:27:09.067Z,9.85
2023-02-22T09:28:09.049Z,9.86
2023-02-22T09:29:09.041Z,9.89
2023-02-22T09:30:09.061Z,9.96
2023-02-22T09:31:09.043Z,9.98
2023-02-22T09:32:09.170Z,10.02
2023-02-22T09:33:09.262Z,10.09
2023-02-22T09:34:08.980Z,10.11
2023-02-22T09:35:08.989Z,10.14
2023-02-22T09:36:09.020Z,10.18
2023-02-22T09:37:08.957Z,10.25
2023-02-22T09:38:08.941Z,10.28
2023-02-22T09:39:08.940Z,10.32
2023-02-22T09:40:08.919Z,10.36
2023-02-22T09:41:08.930Z,10.42
2023-02-22T09:42:08.898Z,10.46
2023-02-22T09:43:08.893Z,10.52
2023-02-22T09:44:08.879Z,10.58
2023-02-22T09:45:08.883Z,10.62
2023-02-22T09:46:08.945Z,10.68
2023-02-22T09:47:08.852Z,10.73
2023-02-22T09:48:21.375Z,10.80
2023-02-22T09:49:09.855Z,10.84
2023-02-22T09:50:08.811Z,10.86
2023-02-22T09:51:08.809Z,10.90
2023-02-22T09:52:08.821Z,10.91
2023-02-22T09:53:08.781Z,10.93
2023-02-22T09:54:08.771Z,10.95
2023-02-22T09:55:08.776Z,11.01
2023-02-22T09:56:08.752Z,11.03
2023-02-22T09:57:08.741Z,11.06
2023-02-22T09:58:08.764Z,11.11
2023-02-22T09:59:08.728Z,11.12
2023-02-22T10:00:08.723Z,11.17
2023-02-22T10:01:09.249Z,11.21
2023-02-22T10:02:08.823Z,11.26
2023-02-22T10:03:08.695Z,11.30
2023-02-22T10:04:08.665Z,11.36
2023-02-22T10:05:08.742Z,11.39
2023-02-22T10:06:08.649Z,11.45
2023-02-22T10:07:08.999Z,11.51
2023-02-22T10:08:08.651Z,11.57
2023-02-22T10:09:08.616Z,11.63
2023-02-22T10:10:08.607Z,11.67
2023-02-22T10:11:08.687Z,11.70
2023-02-22T10:12:08.608Z,11.75
2023-02-22T10:13:08.574Z,11.82
2023-02-22T10:14:08.828Z,11.90
2023-02-22T10:15:08.557Z,11.97
2023-02-22T10:16:08.725Z,12.01
2023-02-22T10:17:08.536Z,12.07
2023-02-22T10:18:08.517Z,12.11
2023-02-22T10:19:09.372Z,12.16
2023-02-22T10:20:08.590Z,12.22
2023-02-22T10:21:08.494Z,12.25
2023-02-22T10:22:08.501Z,12.29
2023-02-22T10:23:08.469Z,12.33
2023-02-22T10:24:08.470Z,12.40
2023-02-22T10:25:09.706Z,12.41
2023-02-22T10:26:08.429Z,12.44
2023-02-22T10:27:08.457Z,12.51
2023-02-22T10:28:08.430Z,12.52
2023-02-22T10:29:08.409Z,12.56
2023-02-22T10:30:23.507Z,12.59
2023-02-22T10:31:09.442Z,12.61
2023-02-22T10:32:08.437Z,12.66
2023-02-22T10:33:08.364Z,12.69
2023-02-22T10:34:08.354Z,12.73
2023-02-22T10:35:08.350Z,12.76
2023-02-22T10:36:08.365Z,12.76
2023-02-22T10:37:08.328Z,12.79
2023-02-22T10:38:08.305Z,12.81
2023-02-22T10:39:08.298Z,12.85
2023-02-22T10:40:08.285Z,12.88
2023-02-22T10:41:08.297Z,12.89
2023-02-22T10:42:08.277Z,12.95
2023-02-22T10:43:08.272Z,12.98
2023-02-22T10:44:08.254Z,13.06
2023-02-22T10:45:08.237Z,13.09
2023-02-22T10:46:08.323Z,13.14
2023-02-22T10:47:08.222Z,13.19
2023-02-22T10:48:08.213Z,13.27
2023-02-22T10:49:08.192Z,13.32
2023-02-22T10:50:08.189Z,13.41
2023-02-22T10:51:08.179Z,13.46
2023-02-22T10:52:08.169Z,13.51
2023-02-22T10:53:08.150Z,13.55
2023-02-22T10:54:08.140Z,13.63
2023-02-22T10:55:15.320Z,13.68
2023-02-22T10:56:09.220Z,13.73
2023-02-22T10:57:08.140Z,13.79
2023-02-22T10:58:08.104Z,13.83
2023-02-22T10:59:08.085Z,13.86
2023-02-22T11:00:08.080Z,13.90
2023-02-22T11:01:08.083Z,13.94
2023-02-22T11:02:08.059Z,13.99
2023-02-22T11:03:08.060Z,14.02
2023-02-22T11:04:08.045Z,14.09
2023-02-22T11:05:08.072Z,14.17
2023-02-22T11:06:08.013Z,14.23
2023-02-22T11:07:08.001Z,14.29
2023-02-22T11:08:08.001Z,14.36
2023-02-22T11:09:07.970Z,14.41
2023-02-22T11:10:07.987Z,14.42
2023-02-22T11:11:07.959Z,14.46
2023-02-22T11:12:07.982Z,14.49
2023-02-22T11:13:07.936Z,14.49
2023-02-22T11:14:07.943Z,14.52
2023-02-22T11:15:07.941Z,14.54
2023-02-22T11:16:07.914Z,14.57
2023-02-22T11:17:07.917Z,14.54
2023-02-22T11:18:08.902Z,14.49
2023-02-22T11:19:07.936Z,14.48
2023-02-22T11:20:07.873Z,14.56
2023-02-22T11:21:07.866Z,14.57
2023-02-22T11:22:07.852Z,14.60
2023-02-22T11:23:07.823Z,14.61
2023-02-22T11:24:07.841Z,14.63
2023-02-22T11:25:07.802Z,14.64
2023-02-22T11:26:07.824Z,14.66
2023-02-22T11:27:07.815Z,14.64
2023-02-22T11:28:07.815Z,14.61
2023-02-22T11:29:07.764Z,14.60
2023-02-22T11:30:07.827Z,14.63
2023-02-22T11:31:07.885Z,14.67
2023-02-22T11:32:07.745Z,14.75
2023-02-22T11:33:07.731Z,14.85
2023-02-22T11:34:07.716Z,14.90
2023-02-22T11:35:09.466Z,14.94
2023-02-22T11:36:07.695Z,14.97
2023-02-22T11:37:07.674Z,14.98
2023-02-22T11:38:07.683Z,15.01
2023-02-22T11:39:07.727Z,15.04
2023-02-22T11:40:07.654Z,15.09
2023-02-22T11:41:07.623Z,15.12
2023-02-22T11:42:07.637Z,15.22
2023-02-22T11:43:07.615Z,15.31
2023-02-22T11:44:07.610Z,15.37
2023-02-22T11:45:07.590Z,15.40
2023-02-22T11:46:07.632Z,15.44
2023-02-22T11:47:07.576Z,15.48
2023-02-22T11:48:07.555Z,15.49
2023-02-22T11:49:07.548Z,15.51
2023-02-22T11:50:07.533Z,15.49
2023-02-22T11:51:07.527Z,15.51
2023-02-22T11:52:07.545Z,15.52
2023-02-22T11:53:07.508Z,15.49
2023-02-22T11:54:07.495Z,15.52
2023-02-22T11:55:07.478Z,15.53
2023-02-22T11:56:07.512Z,15.51
2023-02-22T11:57:07.475Z,15.49
2023-02-22T11:58:07.474Z,15.49
2023-02-22T11:59:07.438Z,15.55
2023-02-22T12:00:07.496Z,15.64
2023-02-22T12:01:07.442Z,15.67
2023-02-22T12:02:07.411Z,15.77
2023-02-22T12:03:07.517Z,15.78
2023-02-22T12:04:07.500Z,15.85
2023-02-22T12:05:08.385Z,15.86
2023-02-22T12:06:07.427Z,15.89
2023-02-22T12:07:07.376Z,15.92
2023-02-22T12:08:18.878Z,15.96
2023-02-22T12:09:08.367Z,15.91
2023-02-22T12:10:07.327Z,15.86
2023-02-22T12:11:07.309Z,15.88
2023-02-22T12:12:07.298Z,15.89
2023-02-22T12:13:07.293Z,15.93
2023-02-22T12:14:07.269Z,15.99
2023-02-22T12:15:07.288Z,16.10
2023-02-22T12:16:07.318Z,16.22
2023-02-22T12:17:07.256Z,16.50
2023-02-22T12:18:07.238Z,16.82
2023-02-22T12:19:07.285Z,17.15
2023-02-22T12:20:07.226Z,17.17
2023-02-22T12:21:07.222Z,17.09
2023-02-22T12:22:07.193Z,17.05
2023-02-22T12:23:07.444Z,16.96
2023-02-22T12:24:07.162Z,16.87
2023-02-22T12:25:09.815Z,16.75
2023-02-22T12:26:07.201Z,16.67
2023-02-22T12:27:07.360Z,16.59
2023-02-22T12:28:19.026Z,16.50
2023-02-22T12:29:08.128Z,16.42
2023-02-22T12:30:08.451Z,16.32
2023-02-22T12:31:07.375Z,16.27
2023-02-22T12:32:08.409Z,16.25
2023-02-22T12:33:07.115Z,16.27
2023-02-22T12:34:07.861Z,16.32
2023-02-22T12:35:07.070Z,16.34
2023-02-22T12:36:07.710Z,16.48
2023-02-22T12:37:07.058Z,16.70
2023-02-22T12:38:07.125Z,17.12
2023-02-22T12:39:07.868Z,17.84
2023-02-22T12:40:07.001Z,18.57
2023-02-22T12:41:07.033Z,18.91
2023-02-22T12:42:06.980Z,19.30
2023-02-22T12:43:07.072Z,19.55
2023-02-22T12:44:06.962Z,19.68
2023-02-22T12:45:08.335Z,20.13
2023-02-22T12:46:07.248Z,20.58
2023-02-22T12:47:06.933Z,20.96
2023-02-22T12:48:07.029Z,21.06
2023-02-22T12:49:06.935Z,21.11
2023-02-22T12:50:07.135Z,20.75
2023-02-22T12:51:06.914Z,20.78
2023-02-22T12:52:20.553Z,20.93
2023-02-22T12:53:07.867Z,20.97
2023-02-22T12:54:06.867Z,20.96
2023-02-22T12:55:07.040Z,21.11
2023-02-22T12:56:06.849Z,21.26
2023-02-22T12:57:06.838Z,20.93
2023-02-22T12:58:06.827Z,20.73
2023-02-22T12:59:06.825Z,20.68
2023-02-22T13:00:06.830Z,20.75
2023-02-22T13:01:07.321Z,20.82
2023-02-22T13:02:06.769Z,20.81
2023-02-22T13:03:06.766Z,20.79
2023-02-22T13:04:19.817Z,20.88
2023-02-22T13:05:07.765Z,20.93
2023-02-22T13:06:06.739Z,20.82
2023-02-22T13:07:06.730Z,20.94
2023-02-22T13:08:06.703Z,21.18
2023-02-22T13:09:06.715Z,21.53
2023-02-22T13:10:06.708Z,21.73
2023-02-22T13:11:06.710Z,22.01